Time;durP1;ratioP1;P1;durP2;ratioP2;P2;SDS_P1;SDS_P2;PMS_P1;PMS_P2;Temp;Humidity;BMP_temperature;BMP_pressure;BME280_temperature;BME280_humidity;BME280_pressure;Samples;Min_cycle;Max_cycle;Signal;HPM_P1;HPM_P2
2021/05/28 00:03:52;;;;;;;1.17;0.90;;;17.60;65.90;;;;;;10575873;28;20215;-22
2021/05/28 00:09:14;;;;;;;2.07;1.20;;;17.70;66.10;;;;;;10576385;28;20233;-21
2021/05/28 00:14:36;;;;;;;1.57;1.10;;;17.60;66.20;;;;;;10575948;28;20187;-21
2021/05/28 00:19:58;;;;;;;1.97;1.00;;;17.60;66.20;;;;;;10576104;28;20217;-20
2021/05/28 00:25:20;;;;;;;1.70;1.13;;;17.70;65.80;;;;;;10582360;28;20218;-19
2021/05/28 00:30:41;;;;;;;2.40;1.17;;;17.70;65.90;;;;;;10583808;28;20229;-24
2021/05/28 00:36:04;;;;;;;1.23;1.10;;;17.70;65.90;;;;;;10564113;28;20210;-20
2021/05/28 00:41:26;;;;;;;2.23;1.07;;;17.70;66.00;;;;;;10557669;28;20224;-22
2021/05/28 00:46:48;;;;;;;1.83;1.07;;;17.70;66.10;;;;;;10583097;28;20218;-19
2021/05/28 00:52:12;;;;;;;2.13;1.20;;;17.70;65.90;;;;;;10584168;28;20197;-23
2021/05/28 00:57:35;;;;;;;2.10;1.17;;;17.70;65.90;;;;;;10572945;28;20732;-21
2021/05/28 01:02:57;;;;;;;2.13;1.40;;;17.60;66.00;;;;;;10539672;28;20298;-22
2021/05/28 01:08:19;;;;;;;2.20;1.20;;;17.70;66.20;;;;;;10540443;28;20212;-21
2021/05/28 01:13:41;;;;;;;1.63;1.10;;;17.60;66.00;;;;;;10540569;28;20198;-22
2021/05/28 01:19:03;;;;;;;0.70;0.70;;;17.60;66.10;;;;;;10540897;28;20786;-23
2021/05/28 01:24:25;;;;;;;1.90;1.20;;;17.60;65.90;;;;;;10539286;28;20218;-23
2021/05/28 01:29:47;;;;;;;2.97;1.37;;;17.60;65.90;;;;;;10556658;22;20292;-24
2021/05/28 01:35:11;;;;;;;1.53;1.10;;;17.60;66.10;;;;;;10562890;28;20194;-24
2021/05/28 01:40:34;;;;;;;1.63;1.20;;;17.60;65.80;;;;;;10569603;28;20224;-24
2021/05/28 01:45:55;;;;;;;1.50;1.20;;;17.70;65.80;;;;;;10581292;28;20570;-23
2021/05/28 01:51:18;;;;;;;1.20;1.03;;;17.70;65.80;;;;;;10582078;28;20218;-24
2021/05/28 01:56:41;;;;;;;3.30;1.20;;;17.70;65.90;;;;;;10580963;28;20665;-24
2021/05/28 02:02:03;;;;;;;1.97;1.20;;;17.70;65.90;;;;;;10580093;28;20205;-23
2021/05/28 02:07:24;;;;;;;2.17;1.30;;;17.60;65.80;;;;;;10581386;28;20225;-24
2021/05/28 02:12:47;;;;;;;1.80;1.20;;;17.60;65.90;;;;;;10581555;27;20250;-26
2021/05/28 02:18:09;;;;;;;1.70;1.30;;;17.60;65.80;;;;;;10581683;28;20226;-26
2021/05/28 02:23:30;;;;;;;2.47;1.10;;;17.60;65.80;;;;;;10579312;28;20225;-26
2021/05/28 02:28:53;;;;;;;2.00;1.20;;;17.60;65.80;;;;;;10580541;28;20233;-23
2021/05/28 02:34:14;;;;;;;2.00;1.13;;;17.60;65.80;;;;;;10575809;28;20202;-28
2021/05/28 02:39:36;;;;;;;1.87;1.30;;;17.60;65.80;;;;;;10578500;28;20667;-24
2021/05/28 02:44:59;;;;;;;2.07;1.17;;;17.70;65.80;;;;;;10578797;28;20207;-23
2021/05/28 02:50:20;;;;;;;1.70;1.27;;;17.70;65.70;;;;;;10584620;28;20230;-26
2021/05/28 02:55:42;;;;;;;1.83;1.20;;;17.60;65.60;;;;;;10578226;28;20193;-22
2021/05/28 03:01:04;;;;;;;1.83;1.20;;;17.60;65.70;;;;;;10557887;28;20225;-23
2021/05/28 03:06:26;;;;;;;1.40;1.20;;;17.60;65.60;;;;;;10537379;28;20210;-23
2021/05/28 03:11:47;;;;;;;3.40;1.40;;;17.70;65.70;;;;;;10579597;27;20729;-24
2021/05/28 03:17:10;;;;;;;1.93;1.00;;;17.70;65.50;;;;;;10579780;27;20589;-23
2021/05/28 03:22:32;;;;;;;2.87;1.10;;;17.70;65.80;;;;;;10578737;27;20214;-23
2021/05/28 03:27:53;;;;;;;1.87;1.20;;;17.60;65.50;;;;;;10579198;27;20233;-23
2021/05/28 03:33:16;;;;;;;2.13;1.10;;;17.60;65.60;;;;;;10579141;27;20189;-26
2021/05/28 03:38:37;;;;;;;1.73;0.90;;;17.60;65.50;;;;;;10570047;28;20229;-25
2021/05/28 03:43:59;;;;;;;2.30;1.00;;;17.60;65.60;;;;;;10547489;28;20213;-24
2021/05/28 03:49:22;;;;;;;1.23;1.00;;;17.70;65.60;;;;;;10547448;28;20238;-24
2021/05/28 03:54:43;;;;;;;1.60;1.20;;;17.60;65.90;;;;;;10577796;28;20243;-23
2021/05/28 04:00:06;;;;;;;1.50;1.00;;;17.60;65.70;;;;;;10584755;28;20566;-25
2021/05/28 04:05:29;;;;;;;1.40;1.20;;;17.50;65.60;;;;;;10585142;28;20222;-23
2021/05/28 04:10:50;;;;;;;1.60;0.90;;;17.60;65.70;;;;;;10585679;28;20581;-22
2021/05/28 04:16:12;;;;;;;3.17;1.30;;;17.60;65.90;;;;;;10586349;27;20194;-25
2021/05/28 04:21:34;;;;;;;2.90;1.13;;;17.60;66.00;;;;;;10586798;27;20214;-22
2021/05/28 04:26:56;;;;;;;1.47;0.97;;;17.60;65.70;;;;;;10585168;28;20267;-25
2021/05/28 04:32:17;;;;;;;1.40;1.27;;;17.60;65.80;;;;;;10583277;27;20194;-23
2021/05/28 04:37:40;;;;;;;2.00;1.27;;;17.60;65.70;;;;;;10568890;28;20214;-26
2021/05/28 04:43:01;;;;;;;1.83;1.20;;;17.60;65.40;;;;;;10555026;28;20725;-26
2021/05/28 04:48:23;;;;;;;2.20;1.27;;;17.60;65.40;;;;;;10552331;28;20221;-24
2021/05/28 04:53:45;;;;;;;1.83;1.17;;;17.60;65.50;;;;;;10574038;28;20570;-23
2021/05/28 04:59:07;;;;;;;1.23;1.13;;;17.60;65.70;;;;;;10542085;28;20685;-23
2021/05/28 05:04:28;;;;;;;2.50;1.30;;;17.60;65.70;;;;;;10541015;28;20245;-23
2021/05/28 05:09:51;;;;;;;1.27;1.10;;;17.60;65.70;;;;;;10540943;28;20216;-22
2021/05/28 05:15:13;;;;;;;2.73;1.40;;;17.60;65.50;;;;;;10541827;28;20199;-23
2021/05/28 05:20:35;;;;;;;1.87;1.50;;;17.60;65.60;;;;;;10541041;28;20227;-23
2021/05/28 05:25:58;;;;;;;3.70;1.60;;;17.60;65.80;;;;;;10540813;28;20213;-23
2021/05/28 05:31:19;;;;;;;1.90;1.40;;;17.60;65.60;;;;;;10540361;28;20222;-22
2021/05/28 05:36:41;;;;;;;2.13;1.50;;;17.60;65.60;;;;;;10572248;28;20198;-23
2021/05/28 05:42:04;;;;;;;1.93;1.57;;;17.60;65.70;;;;;;10561285;28;20210;-23
2021/05/28 05:47:26;;;;;;;9.17;6.27;;;17.60;65.70;;;;;;10563361;28;20219;-22
2021/05/28 05:52:47;;;;;;;8.13;6.70;;;16.70;64.90;;;;;;10551310;27;20205;-23
2021/05/28 05:58:10;;;;;;;7.80;6.30;;;15.50;68.40;;;;;;10555841;28;20213;-23
2021/05/28 06:03:31;;;;;;;12.20;6.60;;;15.20;70.10;;;;;;10552185;28;20221;-23
2021/05/28 06:08:53;;;;;;;9.63;6.43;;;15.20;69.90;;;;;;10571521;28;20220;-25
2021/05/28 06:14:16;;;;;;;11.13;6.10;;;15.00;70.30;;;;;;10581478;28;20187;-22
2021/05/28 06:19:37;;;;;;;10.97;6.40;;;14.90;70.90;;;;;;10562043;28;20594;-25
2021/05/28 06:24:59;;;;;;;8.00;6.20;;;14.80;71.70;;;;;;10538157;28;20238;-24
2021/05/28 06:30:22;;;;;;;9.80;6.90;;;14.80;71.90;;;;;;10576222;28;20276;-24
2021/05/28 06:35:43;;;;;;;10.53;7.17;;;14.60;72.30;;;;;;10579126;28;20206;-24
2021/05/28 06:41:05;;;;;;;13.60;7.87;;;14.60;72.70;;;;;;10577708;28;20219;-25
2021/05/28 06:46:27;;;;;;;9.90;7.17;;;14.60;72.50;;;;;;10570715;28;20206;-22
2021/05/28 06:51:51;;;;;;;8.83;6.90;;;14.60;71.70;;;;;;10578019;28;20617;-23
2021/05/28 06:57:13;;;;;;;8.60;7.67;;;14.70;71.70;;;;;;10575468;28;20701;-23
2021/05/28 07:02:35;;;;;;;8.10;5.90;;;14.80;70.30;;;;;;10576528;28;20215;-24
2021/05/28 07:07:57;;;;;;;10.17;7.37;;;14.90;70.60;;;;;;10578558;28;20219;-24
2021/05/28 07:13:19;;;;;;;9.70;7.77;;;14.80;70.80;;;;;;10577073;28;20188;-25
2021/05/28 07:18:42;;;;;;;8.87;7.60;;;14.80;70.80;;;;;;10579081;27;20222;-23
2021/05/28 07:24:04;;;;;;;6.97;5.93;;;14.80;71.20;;;;;;10575823;28;20206;-23
2021/05/28 07:29:26;;;;;;;5.90;5.13;;;14.90;71.10;;;;;;10577528;28;20230;-23
2021/05/28 07:34:48;;;;;;;5.80;4.67;;;15.50;69.40;;;;;;10576778;28;20200;-23
2021/05/28 07:40:11;;;;;;;4.43;3.57;;;15.90;68.40;;;;;;10612568;22;20215;-22
2021/05/28 07:45:33;;;;;;;3.60;2.53;;;16.20;67.50;;;;;;10611683;27;20210;-22
2021/05/28 07:50:58;;;;;;;3.47;2.53;;;16.50;67.10;;;;;;10612385;27;20223;-25
2021/05/28 07:56:20;;;;;;;3.37;2.57;;;16.70;66.90;;;;;;10594220;28;20199;-26
2021/05/28 08:01:41;;;;;;;3.67;2.30;;;16.90;66.70;;;;;;10612394;28;20631;-23
2021/05/28 08:07:04;;;;;;;2.40;1.90;;;17.00;66.50;;;;;;10619328;28;20209;-23
2021/05/28 08:12:25;;;;;;;3.07;2.00;;;17.20;66.40;;;;;;10618505;28;20603;-23
2021/05/28 08:17:48;;;;;;;2.40;2.20;;;17.30;66.20;;;;;;10647545;27;20747;-25
2021/05/28 08:23:10;;;;;;;3.13;2.37;;;17.40;65.80;;;;;;10627607;27;20219;-25
2021/05/28 08:28:34;;;;;;;2.63;2.00;;;17.50;65.10;;;;;;10618573;28;20213;-23
2021/05/28 08:33:56;;;;;;;3.37;2.17;;;17.50;65.40;;;;;;10599313;28;20664;-25
2021/05/28 08:39:20;;;;;;;2.43;2.10;;;17.50;64.50;;;;;;10576115;28;20230;-25
2021/05/28 08:44:42;;;;;;;4.83;2.20;;;17.50;64.40;;;;;;10580211;28;20273;-23
2021/05/28 08:50:04;;;;;;;3.10;2.03;;;17.60;64.30;;;;;;10603152;27;20558;-23
2021/05/28 08:55:27;;;;;;;2.07;1.87;;;17.60;64.30;;;;;;10624535;27;20267;-24
2021/05/28 09:00:49;;;;;;;3.27;2.20;;;17.70;64.00;;;;;;10621606;27;20213;-23
2021/05/28 09:06:17;;;;;;;2.88;2.20;;;17.70;64.50;;;;;;10619881;27;20668;-25
2021/05/28 09:11:57;;;;;;;1.77;1.67;;;18.00;63.10;;;;;;10625876;27;20716;-23
2021/05/28 09:17:20;;;;;;;3.93;2.10;;;17.90;63.60;;;;;;10624909;27;20203;-25
2021/05/28 09:22:42;;;;;;;2.00;1.80;;;17.90;63.90;;;;;;10623880;27;20214;-23
2021/05/28 09:28:09;;;;;;;2.40;1.87;;;17.90;63.80;;;;;;10624075;27;20221;-22
2021/05/28 09:33:34;;;;;;;2.30;1.93;;;17.90;63.70;;;;;;10623605;27;20197;-22
2021/05/28 09:39:01;;;;;;;4.53;1.90;;;17.90;63.70;;;;;;10623204;27;20225;-22
2021/05/28 09:44:25;;;;;;;2.00;1.80;;;18.00;63.60;;;;;;10623417;27;20221;-21
2021/05/28 09:49:49;;;;;;;4.60;2.10;;;18.00;63.70;;;;;;10623735;27;20217;-22
2021/05/28 09:55:12;;;;;;;3.47;1.80;;;18.00;63.50;;;;;;10579938;28;20198;-23
2021/05/28 10:00:36;;;;;;;4.27;2.00;;;18.00;64.40;;;;;;10607336;27;20241;-22
2021/05/28 10:05:59;;;;;;;3.77;2.10;;;18.00;63.50;;;;;;10587141;27;20243;-23
2021/05/28 10:11:21;;;;;;;3.23;1.90;;;18.00;63.80;;;;;;10581771;28;20270;-21
2021/05/28 10:16:43;;;;;;;4.67;1.90;;;18.10;63.80;;;;;;10579071;28;20236;-24
2021/05/28 10:22:05;;;;;;;4.30;2.37;;;18.10;63.70;;;;;;10578579;28;20229;-21
2021/05/28 10:27:27;;;;;;;9.37;3.03;;;18.10;63.70;;;;;;10586543;27;20201;-25
2021/05/28 10:33:17;;;;;;;3.90;1.80;;;18.00;64.10;;;;;;10620999;27;20207;-23
2021/05/28 10:38:49;;;;;;;5.07;2.10;;;17.90;64.40;;;;;;10619613;27;20229;-24
2021/05/28 10:44:15;;;;;;;5.27;2.10;;;17.80;64.60;;;;;;10612419;27;20222;-21
2021/05/28 10:49:43;;;;;;;4.20;2.37;;;17.80;64.80;;;;;;10620394;27;20218;-24
2021/05/28 10:55:09;;;;;;;3.87;2.23;;;17.80;64.90;;;;;;10621879;27;20200;-25
2021/05/28 11:00:33;;;;;;;4.57;2.33;;;17.80;64.90;;;;;;10607826;27;20604;-23
2021/05/28 11:06:01;;;;;;;4.90;2.37;;;17.80;65.10;;;;;;10599876;27;20218;-26
2021/05/28 11:11:56;;;;;;;3.03;2.10;;;17.80;65.10;;;;;;10617209;27;20218;-21
2021/05/28 11:17:18;;;;;;;4.10;2.17;;;17.80;65.10;;;;;;10594719;27;20195;-24
2021/05/28 11:22:41;;;;;;;4.63;2.47;;;17.70;65.30;;;;;;10577162;28;20275;-23
2021/05/28 11:28:05;;;;;;;4.27;2.20;;;17.70;65.50;;;;;;10579152;27;20222;-24
2021/05/28 11:33:38;;;;;;;3.93;2.17;;;17.70;65.10;;;;;;10574625;28;20195;-21
2021/05/28 11:39:05;;;;;;;4.70;2.30;;;17.70;65.10;;;;;;10588099;27;20230;-24
2021/05/28 11:44:28;;;;;;;2.83;2.03;;;17.80;65.10;;;;;;10612525;27;20714;-22
2021/05/28 11:49:50;;;;;;;2.93;2.00;;;17.70;65.10;;;;;;10606816;27;20225;-22
2021/05/28 11:55:13;;;;;;;2.77;2.03;;;17.80;64.90;;;;;;10619392;27;20305;-24
2021/05/28 12:00:35;;;;;;;4.97;2.07;;;17.80;65.20;;;;;;10619401;28;20218;-23
2021/05/28 12:05:57;;;;;;;5.93;2.07;;;17.80;65.30;;;;;;10576772;28;20213;-24
2021/05/28 12:11:19;;;;;;;4.77;2.07;;;17.80;64.90;;;;;;10613264;27;20245;-22
2021/05/28 12:16:41;;;;;;;3.00;2.03;;;17.80;65.10;;;;;;10617156;28;20194;-23
2021/05/28 12:22:10;;;;;;;6.83;2.40;;;17.70;65.00;;;;;;10626758;27;20217;-21
2021/05/28 12:27:32;;;;;;;3.63;2.30;;;17.80;65.80;;;;;;10625248;27;20193;-23
2021/05/28 12:32:54;;;;;;;5.93;2.40;;;17.80;65.30;;;;;;10626426;27;20190;-24
2021/05/28 12:38:16;;;;;;;2.73;1.80;;;17.80;65.40;;;;;;10621064;27;20309;-23
2021/05/28 12:43:42;;;;;;;4.20;2.23;;;17.80;65.10;;;;;;10625449;27;20217;-23
2021/05/28 12:49:06;;;;;;;5.07;2.23;;;17.70;65.70;;;;;;10625839;27;20704;-22
2021/05/28 12:54:30;;;;;;;2.50;1.93;;;17.70;64.90;;;;;;10624478;27;20197;-21
2021/05/28 12:59:52;;;;;;;2.97;1.90;;;17.70;64.90;;;;;;10624086;27;20218;-22
2021/05/28 13:05:14;;;;;;;3.23;2.03;;;17.70;65.00;;;;;;10624996;27;20214;-21
2021/05/28 13:10:35;;;;;;;2.87;1.80;;;17.70;65.20;;;;;;10618141;27;20715;-22
2021/05/28 13:16:05;;;;;;;2.23;2.03;;;17.70;65.10;;;;;;10619967;27;20683;-25
2021/05/28 13:21:28;;;;;;;3.90;2.07;;;17.70;65.10;;;;;;10602106;27;20272;-26
2021/05/28 13:26:52;;;;;;;7.03;2.53;;;17.70;65.10;;;;;;10580366;28;20207;-23
2021/05/28 13:32:19;;;;;;;4.20;1.77;;;17.70;65.10;;;;;;10579722;28;20206;-24
2021/05/28 13:42:55;;;;;;;9.53;2.00;;;17.80;64.60;;;;;;10593348;27;20647;-22
2021/05/28 13:48:18;;;;;;;7.63;2.57;;;17.80;64.60;;;;;;10597620;27;20211;-21
2021/05/28 13:53:40;;;;;;;17.80;2.40;;;17.90;64.80;;;;;;10596878;27;20195;-24
2021/05/28 13:59:02;;;;;;;21.83;2.67;;;18.00;64.40;;;;;;10576191;27;20255;-23
2021/05/28 14:04:25;;;;;;;14.70;2.23;;;18.00;64.60;;;;;;10596658;27;20555;-23
2021/05/28 14:09:46;;;;;;;9.13;2.07;;;18.00;64.40;;;;;;10592498;27;20222;-23
2021/05/28 14:15:09;;;;;;;5.37;1.90;;;18.10;64.00;;;;;;10578756;27;20691;-25
2021/05/28 14:20:33;;;;;;;7.27;1.93;;;18.10;64.00;;;;;;10584535;27;20218;-24
2021/05/28 14:25:55;;;;;;;5.13;2.17;;;18.20;64.20;;;;;;10621106;27;20592;-27
2021/05/28 14:31:16;;;;;;;5.10;1.80;;;18.20;64.20;;;;;;10621657;27;20592;-23
2021/05/28 14:36:39;;;;;;;5.57;1.77;;;18.20;64.10;;;;;;10598453;27;20243;-25
2021/05/28 14:42:01;;;;;;;4.87;1.90;;;18.10;64.00;;;;;;10592706;27;20251;-24
2021/05/28 14:47:22;;;;;;;3.90;1.47;;;18.20;63.80;;;;;;10579214;28;20665;-24
2021/05/28 14:52:45;;;;;;;3.07;1.50;;;18.20;63.80;;;;;;10578268;28;20309;-24
2021/05/28 14:58:06;;;;;;;3.20;1.70;;;18.20;63.80;;;;;;10577976;28;20685;-28
2021/05/28 15:03:31;;;;;;;5.27;1.47;;;18.10;64.30;;;;;;10598689;27;20210;-26
2021/05/28 15:08:53;;;;;;;5.37;1.70;;;18.10;64.30;;;;;;10579552;27;20431;-23
2021/05/28 15:14:15;;;;;;;2.93;1.40;;;18.30;63.50;;;;;;10586813;27;20436;-24
2021/05/28 15:19:36;;;;;;;2.63;1.40;;;18.10;64.40;;;;;;10584402;27;20993;-23
2021/05/28 15:24:59;;;;;;;2.03;1.27;;;18.10;64.40;;;;;;10595897;27;20236;-23
2021/05/28 15:30:24;;;;;;;4.50;1.33;;;18.00;64.70;;;;;;10605721;27;20617;-23
2021/05/28 15:35:46;;;;;;;3.10;1.30;;;18.00;65.20;;;;;;10619867;27;20610;-24
2021/05/28 15:41:09;;;;;;;5.10;1.37;;;18.00;65.30;;;;;;10591795;27;20225;-26
2021/05/28 15:46:31;;;;;;;2.03;1.30;;;18.00;65.40;;;;;;10578107;28;20223;-24
2021/05/28 15:51:53;;;;;;;8.87;1.40;;;18.00;65.50;;;;;;10589877;27;20226;-24
2021/05/28 15:57:15;;;;;;;1.60;1.20;;;17.90;65.10;;;;;;10577497;28;20199;-27
2021/05/28 16:02:37;;;;;;;3.93;1.40;;;17.90;65.20;;;;;;10592850;28;20218;-28
2021/05/28 16:07:58;;;;;;;4.43;1.60;;;18.00;65.20;;;;;;10618660;28;20197;-24
2021/05/28 16:13:23;;;;;;;2.00;1.17;;;18.10;65.20;;;;;;10597013;28;20195;-25
2021/05/28 16:18:44;;;;;;;1.33;1.00;;;18.10;65.10;;;;;;10575207;28;20280;-24
2021/05/28 16:24:07;;;;;;;4.07;1.33;;;18.10;65.20;;;;;;10575391;28;20214;-25
2021/05/28 16:29:29;;;;;;;3.00;1.40;;;18.10;65.10;;;;;;10590810;28;20267;-28
2021/05/28 16:34:51;;;;;;;6.07;1.40;;;18.10;64.50;;;;;;10618749;28;20565;-28
2021/05/28 16:40:14;;;;;;;2.97;1.83;;;18.00;62.60;;;;;;10610015;28;20222;-26
2021/05/28 16:45:37;;;;;;;4.37;1.30;;;17.80;62.60;;;;;;10571094;28;20214;-27
2021/05/28 16:50:59;;;;;;;2.97;1.53;;;17.80;64.00;;;;;;10571545;28;20219;-23
2021/05/28 16:56:21;;;;;;;3.07;1.27;;;17.80;65.00;;;;;;10573702;28;20678;-24
2021/05/28 17:01:43;;;;;;;2.53;1.40;;;17.80;64.50;;;;;;10584076;28;20296;-26
2021/05/28 17:07:05;;;;;;;1.60;1.20;;;17.80;64.90;;;;;;10619652;27;20201;-28
2021/05/28 17:12:27;;;;;;;1.87;1.07;;;17.80;64.90;;;;;;10589357;27;20573;-27
2021/05/28 17:17:50;;;;;;;2.27;1.43;;;17.80;65.00;;;;;;10582184;28;20658;-24
2021/05/28 17:23:11;;;;;;;1.57;1.20;;;17.80;64.90;;;;;;10581823;28;20242;-24
2021/05/28 17:28:34;;;;;;;2.07;1.17;;;17.80;65.10;;;;;;10581747;28;20616;-24
2021/05/28 17:33:56;;;;;;;1.80;1.43;;;17.80;65.20;;;;;;10599056;27;20193;-23
2021/05/28 17:39:18;;;;;;;2.47;1.30;;;17.80;64.90;;;;;;10581535;28;20241;-24
2021/05/28 17:44:40;;;;;;;2.13;1.30;;;17.80;65.30;;;;;;10582010;28;20214;-23
2021/05/28 17:50:03;;;;;;;1.47;1.30;;;17.80;65.40;;;;;;10583841;27;20207;-25
2021/05/28 17:55:25;;;;;;;2.10;1.20;;;17.80;65.20;;;;;;10608799;27;20196;-23
2021/05/28 18:00:47;;;;;;;4.10;1.50;;;17.80;65.30;;;;;;10602227;27;20638;-23
2021/05/28 18:06:09;;;;;;;2.87;1.40;;;17.80;66.10;;;;;;10584891;27;20213;-24
2021/05/28 18:11:31;;;;;;;2.30;1.50;;;17.80;65.50;;;;;;10576111;28;20237;-24
2021/05/28 18:16:54;;;;;;;3.53;1.33;;;17.80;65.50;;;;;;10581042;27;20194;-24
2021/05/28 18:22:17;;;;;;;3.63;1.40;;;17.90;65.60;;;;;;10595302;27;20207;-24
2021/05/28 18:27:39;;;;;;;4.33;1.60;;;17.90;65.70;;;;;;10621319;27;20381;-25
2021/05/28 18:33:03;;;;;;;7.47;2.03;;;17.90;66.20;;;;;;10619829;27;20194;-25
2021/05/28 18:38:26;;;;;;;6.67;1.63;;;17.90;65.80;;;;;;10619701;27;20222;-24
2021/05/28 18:43:47;;;;;;;4.07;1.47;;;17.90;65.90;;;;;;10578938;28;20666;-24
2021/05/28 18:49:09;;;;;;;2.47;1.53;;;18.00;65.40;;;;;;10578513;28;20222;-25
2021/05/28 18:54:31;;;;;;;6.43;1.90;;;18.00;65.60;;;;;;10577448;28;20188;-24
2021/05/28 18:59:53;;;;;;;12.10;4.93;;;18.00;65.50;;;;;;10577694;28;20593;-23
2021/05/28 19:05:19;;;;;;;9.67;2.70;;;18.30;65.20;;;;;;10613560;27;20222;-24
2021/05/28 19:10:44;;;;;;;5.90;2.50;;;18.20;65.10;;;;;;10602763;27;20221;-24
2021/05/28 19:16:06;;;;;;;5.87;2.20;;;18.10;65.00;;;;;;10619913;27;20182;-23
2021/05/28 19:21:29;;;;;;;3.67;2.70;;;18.00;64.80;;;;;;10602358;27;20589;-24
2021/05/28 19:26:52;;;;;;;7.23;2.40;;;18.00;64.90;;;;;;10594916;27;20710;-25
2021/05/28 19:32:14;;;;;;;3.20;2.10;;;17.90;65.10;;;;;;10591702;27;20205;-25
2021/05/28 19:37:36;;;;;;;3.20;2.40;;;17.90;65.20;;;;;;10594329;27;20187;-25
2021/05/28 19:42:59;;;;;;;3.87;2.20;;;17.90;65.20;;;;;;10581391;22;20256;-22
2021/05/28 19:48:21;;;;;;;4.10;2.37;;;17.80;65.30;;;;;;10574520;28;20202;-23
2021/05/28 19:54:00;;;;;;;4.87;2.20;;;17.80;65.30;;;;;;10575056;28;20194;-22
2021/05/28 19:59:23;;;;;;;5.57;2.80;;;17.80;65.30;;;;;;10575651;28;20242;-21
2021/05/28 20:04:44;;;;;;;2.90;1.80;;;17.90;65.20;;;;;;10574314;28;20221;-22
2021/05/28 20:10:09;;;;;;;2.93;2.17;;;17.90;65.10;;;;;;10579170;28;20696;-23
2021/05/28 20:15:32;;;;;;;4.93;2.50;;;17.80;65.20;;;;;;10574399;28;20689;-22
2021/05/28 20:20:53;;;;;;;2.47;2.00;;;17.80;65.30;;;;;;10574328;28;20217;-22
2021/05/28 20:26:15;;;;;;;2.53;1.80;;;17.80;65.20;;;;;;10573161;28;20593;-22
2021/05/28 20:31:38;;;;;;;4.47;2.33;;;17.80;65.30;;;;;;10573570;28;20211;-22
2021/05/28 20:37:00;;;;;;;3.07;1.80;;;17.80;65.50;;;;;;10574969;28;20202;-22
2021/05/28 20:42:23;;;;;;;2.77;1.70;;;17.80;65.90;;;;;;10612392;27;20223;-22
2021/05/28 20:47:47;;;;;;;3.97;2.13;;;17.80;65.30;;;;;;10624677;27;20633;-22
2021/05/28 20:53:09;;;;;;;2.80;1.93;;;17.80;65.30;;;;;;10626259;27;20274;-23
2021/05/28 20:58:31;;;;;;;2.43;1.90;;;17.80;65.30;;;;;;10626492;27;20208;-22
2021/05/28 21:04:14;;;;;;;3.20;1.90;;;17.80;65.40;;;;;;10642740;27;20206;-22
2021/05/28 21:09:35;;;;;;;2.90;1.83;;;17.70;65.30;;;;;;10668534;27;20242;-22
2021/05/28 21:14:57;;;;;;;3.87;2.20;;;17.70;65.50;;;;;;10667502;27;20196;-22
2021/05/28 21:20:20;;;;;;;2.63;1.87;;;17.70;65.40;;;;;;10667240;27;20223;-22
2021/05/28 21:25:42;;;;;;;1.67;1.43;;;17.70;65.40;;;;;;10667883;27;20208;-22
2021/05/28 21:31:04;;;;;;;1.80;1.60;;;17.70;65.30;;;;;;10666652;27;20221;-22
2021/05/28 21:36:26;;;;;;;1.87;1.50;;;17.80;65.40;;;;;;10654432;27;20279;-22
2021/05/28 21:41:48;;;;;;;1.83;1.60;;;17.70;65.40;;;;;;10646804;27;20226;-23
2021/05/28 21:47:09;;;;;;;1.73;1.50;;;17.70;65.90;;;;;;10624895;27;20681;-22
2021/05/28 21:52:32;;;;;;;2.67;1.97;;;17.70;65.60;;;;;;10622262;27;20221;-22
2021/05/28 21:57:53;;;;;;;2.23;1.90;;;17.70;65.40;;;;;;10624179;27;20193;-22
2021/05/28 22:03:16;;;;;;;2.20;1.80;;;17.70;65.80;;;;;;10617881;27;20216;-23
2021/05/28 22:08:38;;;;;;;2.67;1.93;;;17.70;65.60;;;;;;10623850;27;20599;-22
2021/05/28 22:14:00;;;;;;;2.07;1.50;;;17.70;65.40;;;;;;10623014;27;20235;-22
2021/05/28 22:19:21;;;;;;;2.10;1.80;;;17.70;65.50;;;;;;10618520;27;20639;-22
2021/05/28 22:24:44;;;;;;;2.90;1.97;;;17.70;65.50;;;;;;10664660;27;20220;-22
2021/05/28 22:35:47;;;;;;;1.97;1.60;;;17.70;65.40;;;;;;10632327;27;20193;-23
2021/05/28 22:41:09;;;;;;;3.10;2.00;;;17.70;65.20;;;;;;10621078;27;20237;-23
2021/05/28 22:46:32;;;;;;;2.20;1.50;;;17.70;65.70;;;;;;10620114;27;20213;-22
2021/05/28 22:51:54;;;;;;;2.20;1.90;;;17.70;65.70;;;;;;10621759;27;20210;-22
2021/05/28 22:57:16;;;;;;;1.80;1.70;;;17.70;65.80;;;;;;10621969;27;20458;-22
2021/05/28 23:02:38;;;;;;;3.50;1.60;;;17.70;65.50;;;;;;10619964;27;20233;-22
2021/05/28 23:08:01;;;;;;;1.53;1.43;;;17.70;66.10;;;;;;10622544;27;20196;-22
2021/05/28 23:13:23;;;;;;;1.97;1.67;;;17.70;65.70;;;;;;10662824;27;20703;-22
2021/05/28 23:18:45;;;;;;;2.67;1.77;;;17.70;65.30;;;;;;10662611;27;20223;-22
2021/05/28 23:24:08;;;;;;;2.43;1.77;;;17.70;65.50;;;;;;10662097;27;20215;-22
2021/05/28 23:29:31;;;;;;;1.63;1.53;;;17.60;65.60;;;;;;10662169;27;20584;-23
2021/05/28 23:34:52;;;;;;;2.90;1.67;;;17.60;65.50;;;;;;10641325;27;20190;-23
2021/05/28 23:40:15;;;;;;;1.60;1.50;;;17.70;65.40;;;;;;10614680;27;20704;-22
2021/05/28 23:45:38;;;;;;;1.93;1.30;;;17.60;65.50;;;;;;10577761;28;20271;-22
2021/05/28 23:51:01;;;;;;;2.00;1.80;;;17.60;65.50;;;;;;10576780;28;20241;-22
2021/05/28 23:56:23;;;;;;;2.30;1.70;;;17.60;65.80;;;;;;10591528;27;20197;-22
